sensor_id;sensor_type;location;lat;lon;timestamp;temperature;humidity
21092;DHT22;10704;42.678;23.288;2023-03-01T00:01:01;6.00;99.90
21092;DHT22;10704;42.678;23.288;2023-03-01T00:03:27;6.00;99.90
21092;DHT22;10704;42.678;23.288;2023-03-01T00:05:53;5.90;99.90
21092;DHT22;10704;42.678;23.288;2023-03-01T00:08:19;6.00;99.90
21092;DHT22;10704;42.678;23.288;2023-03-01T00:10:45;5.90;99.90
21092;DHT22;10704;42.678;23.288;2023-03-01T00:13:10;5.90;99.90
21092;DHT22;10704;42.678;23.288;2023-03-01T00:15:40;6.00;99.90
21092;DHT22;10704;42.678;23.288;2023-03-01T00:18:07;6.00;99.90
21092;DHT22;10704;42.678;23.288;2023-03-01T00:20:34;6.00;99.90
21092;DHT22;10704;42.678;23.288;2023-03-01T00:23:00;5.90;99.90
21092;DHT22;10704;42.678;23.288;2023-03-01T00:25:26;5.90;99.90
21092;DHT22;10704;42.678;23.288;2023-03-01T00:27:51;5.80;99.90
21092;DHT22;10704;42.678;23.288;2023-03-01T00:30:19;5.80;99.90
21092;DHT22;10704;42.678;23.288;2023-03-01T00:32:45;5.90;99.90
21092;DHT22;10704;42.678;23.288;2023-03-01T00:35:11;5.80;99.90
21092;DHT22;10704;42.678;23.288;2023-03-01T00:37:37;5.70;99.90
21092;DHT22;10704;42.678;23.288;2023-03-01T00:40:03;5.80;99.90
21092;DHT22;10704;42.678;23.288;2023-03-01T00:42:31;5.70;99.90
21092;DHT22;10704;42.678;23.288;2023-03-01T00:44:57;5.70;99.90
21092;DHT22;10704;42.678;23.288;2023-03-01T00:47:23;5.70;99.90
21092;DHT22;10704;42.678;23.288;2023-03-01T00:49:49;5.70;99.90
21092;DHT22;10704;42.678;23.288;2023-03-01T00:52:15;5.70;99.90
21092;DHT22;10704;42.678;23.288;2023-03-01T00:54:41;5.70;99.90
21092;DHT22;10704;42.678;23.288;2023-03-01T00:57:07;5.70;99.90
21092;DHT22;10704;42.678;23.288;2023-03-01T00:59:33;5.60;99.90
21092;DHT22;10704;42.678;23.288;2023-03-01T01:02:00;5.70;99.90
21092;DHT22;10704;42.678;23.288;2023-03-01T01:04:26;5.70;99.90
21092;DHT22;10704;42.678;23.288;2023-03-01T01:06:52;5.60;99.90
21092;DHT22;10704;42.678;23.288;2023-03-01T01:09:18;5.60;99.90
21092;DHT22;10704;42.678;23.288;2023-03-01T01:11:49;5.60;99.90
21092;DHT22;10704;42.678;23.288;2023-03-01T01:14:16;5.60;99.90
21092;DHT22;10704;42.678;23.288;2023-03-01T01:16:43;5.60;99.90
21092;DHT22;10704;42.678;23.288;2023-03-01T01:19:10;5.60;99.90
21092;DHT22;10704;42.678;23.288;2023-03-01T01:21:37;5.60;99.90
21092;DHT22;10704;42.678;23.288;2023-03-01T01:24:04;5.60;99.90
21092;DHT22;10704;42.678;23.288;2023-03-01T01:26:32;5.60;99.90
21092;DHT22;10704;42.678;23.288;2023-03-01T01:29:00;5.50;99.90
21092;DHT22;10704;42.678;23.288;2023-03-01T01:31:27;5.40;99.90
21092;DHT22;10704;42.678;23.288;2023-03-01T01:33:55;5.40;99.90
21092;DHT22;10704;42.678;23.288;2023-03-01T01:36:22;5.40;99.90
21092;DHT22;10704;42.678;23.288;2023-03-01T01:38:48;5.30;99.90
21092;DHT22;10704;42.678;23.288;2023-03-01T01:41:15;5.50;99.90
21092;DHT22;10704;42.678;23.288;2023-03-01T01:43:44;5.40;99.90
21092;DHT22;10704;42.678;23.288;2023-03-01T01:46:33;5.40;99.90
21092;DHT22;10704;42.678;23.288;2023-03-01T01:49:19;5.50;99.90
21092;DHT22;10704;42.678;23.288;2023-03-01T01:51:51;5.60;99.90
21092;DHT22;10704;42.678;23.288;2023-03-01T01:54:22;5.60;99.90
21092;DHT22;10704;42.678;23.288;2023-03-01T01:56:54;5.60;99.90
21092;DHT22;10704;42.678;23.288;2023-03-01T01:59:21;5.50;99.90
21092;DHT22;10704;42.678;23.288;2023-03-01T02:01:51;5.50;99.90
21092;DHT22;10704;42.678;23.288;2023-03-01T02:04:17;5.50;99.90
21092;DHT22;10704;42.678;23.288;2023-03-01T02:06:56;5.60;99.90
21092;DHT22;10704;42.678;23.288;2023-03-01T02:09:23;5.60;99.90
21092;DHT22;10704;42.678;23.288;2023-03-01T02:11:50;5.60;99.90
21092;DHT22;10704;42.678;23.288;2023-03-01T02:14:17;5.70;99.90
21092;DHT22;10704;42.678;23.288;2023-03-01T02:16:43;5.60;99.90
21092;DHT22;10704;42.678;23.288;2023-03-01T02:19:17;5.60;99.90
21092;DHT22;10704;42.678;23.288;2023-03-01T02:30:40;5.50;99.90
21092;DHT22;10704;42.678;23.288;2023-03-01T02:33:26;5.50;99.90
21092;DHT22;10704;42.678;23.288;2023-03-01T02:35:54;5.60;99.90
21092;DHT22;10704;42.678;23.288;2023-03-01T02:38:22;5.60;99.90
21092;DHT22;10704;42.678;23.288;2023-03-01T02:40:50;5.60;99.90
21092;DHT22;10704;42.678;23.288;2023-03-01T02:43:18;5.60;99.90
21092;DHT22;10704;42.678;23.288;2023-03-01T02:45:52;5.50;99.90
21092;DHT22;10704;42.678;23.288;2023-03-01T02:48:19;5.50;99.90
21092;DHT22;10704;42.678;23.288;2023-03-01T02:57:01;5.60;99.90
21092;DHT22;10704;42.678;23.288;2023-03-01T02:59:32;5.60;99.90
21092;DHT22;10704;42.678;23.288;2023-03-01T03:02:07;5.50;99.90
21092;DHT22;10704;42.678;23.288;2023-03-01T03:04:33;5.50;99.90
21092;DHT22;10704;42.678;23.288;2023-03-01T03:06:59;5.50;99.90
21092;DHT22;10704;42.678;23.288;2023-03-01T03:09:25;5.60;99.90
21092;DHT22;10704;42.678;23.288;2023-03-01T03:11:51;5.70;99.90
21092;DHT22;10704;42.678;23.288;2023-03-01T03:14:17;5.70;99.90
21092;DHT22;10704;42.678;23.288;2023-03-01T03:16:48;5.70;99.90
21092;DHT22;10704;42.678;23.288;2023-03-01T03:19:15;5.70;99.90
21092;DHT22;10704;42.678;23.288;2023-03-01T03:21:42;5.70;99.90
21092;DHT22;10704;42.678;23.288;2023-03-01T03:24:08;5.70;99.90
21092;DHT22;10704;42.678;23.288;2023-03-01T03:26:34;5.60;99.90
21092;DHT22;10704;42.678;23.288;2023-03-01T03:29:00;5.60;99.90
21092;DHT22;10704;42.678;23.288;2023-03-01T03:31:26;5.60;99.90
21092;DHT22;10704;42.678;23.288;2023-03-01T03:33:53;5.50;99.90
21092;DHT22;10704;42.678;23.288;2023-03-01T03:36:22;5.50;99.90
21092;DHT22;10704;42.678;23.288;2023-03-01T03:38:48;5.40;99.90
21092;DHT22;10704;42.678;23.288;2023-03-01T03:41:14;5.50;99.90
21092;DHT22;10704;42.678;23.288;2023-03-01T03:43:41;5.50;99.90
21092;DHT22;10704;42.678;23.288;2023-03-01T03:46:14;5.40;99.90
21092;DHT22;10704;42.678;23.288;2023-03-01T03:48:42;5.50;99.90
21092;DHT22;10704;42.678;23.288;2023-03-01T03:51:14;5.60;99.90
21092;DHT22;10704;42.678;23.288;2023-03-01T03:53:41;5.50;99.90
21092;DHT22;10704;42.678;23.288;2023-03-01T03:56:07;5.40;99.90
21092;DHT22;10704;42.678;23.288;2023-03-01T03:58:33;5.50;99.90
21092;DHT22;10704;42.678;23.288;2023-03-01T04:00:59;5.40;99.90
21092;DHT22;10704;42.678;23.288;2023-03-01T04:03:27;5.50;99.90
21092;DHT22;10704;42.678;23.288;2023-03-01T04:05:53;5.50;99.90
21092;DHT22;10704;42.678;23.288;2023-03-01T04:08:21;5.40;99.90
21092;DHT22;10704;42.678;23.288;2023-03-01T04:10:50;5.40;99.90
21092;DHT22;10704;42.678;23.288;2023-03-01T04:13:22;5.40;99.90
21092;DHT22;10704;42.678;23.288;2023-03-01T04:15:52;5.40;99.90
21092;DHT22;10704;42.678;23.288;2023-03-01T04:18:19;5.30;99.90
21092;DHT22;10704;42.678;23.288;2023-03-01T04:20:46;5.30;99.90
21092;DHT22;10704;42.678;23.288;2023-03-01T04:23:17;5.30;99.90
21092;DHT22;10704;42.678;23.288;2023-03-01T04:25:51;5.30;99.90
21092;DHT22;10704;42.678;23.288;2023-03-01T04:28:24;5.20;99.90
21092;DHT22;10704;42.678;23.288;2023-03-01T04:30:52;5.20;99.90
21092;DHT22;10704;42.678;23.288;2023-03-01T04:33:19;5.20;99.90
21092;DHT22;10704;42.678;23.288;2023-03-01T04:35:45;5.10;99.90
21092;DHT22;10704;42.678;23.288;2023-03-01T04:38:11;5.10;99.90
21092;DHT22;10704;42.678;23.288;2023-03-01T04:40:37;5.10;99.90
21092;DHT22;10704;42.678;23.288;2023-03-01T04:43:04;5.10;99.90
21092;DHT22;10704;42.678;23.288;2023-03-01T04:45:31;5.10;99.90
21092;DHT22;10704;42.678;23.288;2023-03-01T04:47:57;5.20;99.90
21092;DHT22;10704;42.678;23.288;2023-03-01T04:50:23;5.10;99.90
21092;DHT22;10704;42.678;23.288;2023-03-01T04:52:51;5.20;99.90
21092;DHT22;10704;42.678;23.288;2023-03-01T04:55:18;5.20;99.90
21092;DHT22;10704;42.678;23.288;2023-03-01T04:57:44;5.20;99.90
21092;DHT22;10704;42.678;23.288;2023-03-01T05:00:12;5.30;99.90
21092;DHT22;10704;42.678;23.288;2023-03-01T05:02:52;5.30;99.90
21092;DHT22;10704;42.678;23.288;2023-03-01T05:05:24;5.20;99.90
21092;DHT22;10704;42.678;23.288;2023-03-01T05:07:59;5.20;99.90
21092;DHT22;10704;42.678;23.288;2023-03-01T05:10:26;5.20;99.90
21092;DHT22;10704;42.678;23.288;2023-03-01T05:12:52;5.20;99.90
21092;DHT22;10704;42.678;23.288;2023-03-01T05:15:19;5.10;99.90
21092;DHT22;10704;42.678;23.288;2023-03-01T05:17:48;5.10;99.90
21092;DHT22;10704;42.678;23.288;2023-03-01T05:20:14;5.10;99.90
21092;DHT22;10704;42.678;23.288;2023-03-01T05:22:39;5.20;99.90
21092;DHT22;10704;42.678;23.288;2023-03-01T05:25:06;5.20;99.90
21092;DHT22;10704;42.678;23.288;2023-03-01T05:27:33;5.10;99.90
21092;DHT22;10704;42.678;23.288;2023-03-01T05:29:59;5.20;99.90
21092;DHT22;10704;42.678;23.288;2023-03-01T05:32:24;5.20;99.90
21092;DHT22;10704;42.678;23.288;2023-03-01T05:34:50;5.20;99.90
21092;DHT22;10704;42.678;23.288;2023-03-01T05:37:17;5.20;99.90
21092;DHT22;10704;42.678;23.288;2023-03-01T05:39:45;5.30;99.90
21092;DHT22;10704;42.678;23.288;2023-03-01T05:42:11;5.40;99.90
21092;DHT22;10704;42.678;23.288;2023-03-01T05:44:37;5.70;99.90
21092;DHT22;10704;42.678;23.288;2023-03-01T05:47:03;6.20;99.90
21092;DHT22;10704;42.678;23.288;2023-03-01T05:49:29;6.00;99.90
21092;DHT22;10704;42.678;23.288;2023-03-01T05:51:55;6.10;99.90
21092;DHT22;10704;42.678;23.288;2023-03-01T05:54:22;6.30;99.90
21092;DHT22;10704;42.678;23.288;2023-03-01T05:56:48;5.90;99.90
21092;DHT22;10704;42.678;23.288;2023-03-01T05:59:14;5.80;99.90
21092;DHT22;10704;42.678;23.288;2023-03-01T06:01:41;5.70;99.90
21092;DHT22;10704;42.678;23.288;2023-03-01T06:04:08;5.70;99.90
21092;DHT22;10704;42.678;23.288;2023-03-01T06:06:35;5.70;99.90
21092;DHT22;10704;42.678;23.288;2023-03-01T06:09:03;5.70;99.90
21092;DHT22;10704;42.678;23.288;2023-03-01T06:11:29;5.70;99.90
21092;DHT22;10704;42.678;23.288;2023-03-01T06:13:55;5.70;99.90
21092;DHT22;10704;42.678;23.288;2023-03-01T06:16:21;5.80;99.90
21092;DHT22;10704;42.678;23.288;2023-03-01T06:18:47;5.70;99.90
21092;DHT22;10704;42.678;23.288;2023-03-01T06:21:13;5.70;99.90
21092;DHT22;10704;42.678;23.288;2023-03-01T06:23:39;5.60;99.90
21092;DHT22;10704;42.678;23.288;2023-03-01T06:26:07;5.60;99.90
21092;DHT22;10704;42.678;23.288;2023-03-01T06:28:33;5.60;99.90
21092;DHT22;10704;42.678;23.288;2023-03-01T06:30:59;5.60;99.90
21092;DHT22;10704;42.678;23.288;2023-03-01T06:33:25;5.60;99.90
21092;DHT22;10704;42.678;23.288;2023-03-01T06:35:53;5.60;99.90
21092;DHT22;10704;42.678;23.288;2023-03-01T06:38:20;5.60;99.90
21092;DHT22;10704;42.678;23.288;2023-03-01T06:40:52;5.60;99.90
21092;DHT22;10704;42.678;23.288;2023-03-01T06:43:18;5.60;99.90
21092;DHT22;10704;42.678;23.288;2023-03-01T06:45:44;5.60;99.90
21092;DHT22;10704;42.678;23.288;2023-03-01T06:48:11;5.60;99.90
21092;DHT22;10704;42.678;23.288;2023-03-01T06:50:37;5.60;99.90
21092;DHT22;10704;42.678;23.288;2023-03-01T06:53:03;5.60;99.90
21092;DHT22;10704;42.678;23.288;2023-03-01T06:55:29;5.60;99.90
21092;DHT22;10704;42.678;23.288;2023-03-01T06:57:56;5.60;99.90
21092;DHT22;10704;42.678;23.288;2023-03-01T07:00:23;5.60;99.90
21092;DHT22;10704;42.678;23.288;2023-03-01T07:02:50;5.60;99.90
21092;DHT22;10704;42.678;23.288;2023-03-01T07:05:15;5.60;99.90
21092;DHT22;10704;42.678;23.288;2023-03-01T07:07:41;5.70;99.90
21092;DHT22;10704;42.678;23.288;2023-03-01T07:10:08;5.80;99.90
21092;DHT22;10704;42.678;23.288;2023-03-01T07:12:34;5.80;99.90
21092;DHT22;10704;42.678;23.288;2023-03-01T07:15:00;5.90;99.90
21092;DHT22;10704;42.678;23.288;2023-03-01T07:17:26;5.90;99.90
21092;DHT22;10704;42.678;23.288;2023-03-01T07:19:52;6.00;99.90
21092;DHT22;10704;42.678;23.288;2023-03-01T07:22:18;6.00;99.90
21092;DHT22;10704;42.678;23.288;2023-03-01T07:24:44;6.00;99.90
21092;DHT22;10704;42.678;23.288;2023-03-01T07:27:10;6.00;99.90
21092;DHT22;10704;42.678;23.288;2023-03-01T07:29:36;6.20;99.90
21092;DHT22;10704;42.678;23.288;2023-03-01T07:32:03;6.30;99.90
21092;DHT22;10704;42.678;23.288;2023-03-01T07:34:29;6.40;99.90
21092;DHT22;10704;42.678;23.288;2023-03-01T07:36:55;6.30;99.90
21092;DHT22;10704;42.678;23.288;2023-03-01T07:39:21;6.30;99.90
21092;DHT22;10704;42.678;23.288;2023-03-01T07:41:49;6.40;99.90
21092;DHT22;10704;42.678;23.288;2023-03-01T07:44:20;6.40;99.90
21092;DHT22;10704;42.678;23.288;2023-03-01T07:46:46;6.50;99.90
21092;DHT22;10704;42.678;23.288;2023-03-01T07:49:12;6.50;99.90
21092;DHT22;10704;42.678;23.288;2023-03-01T07:51:38;6.60;99.90
21092;DHT22;10704;42.678;23.288;2023-03-01T07:54:04;6.60;99.90
21092;DHT22;10704;42.678;23.288;2023-03-01T07:56:29;6.70;99.90
21092;DHT22;10704;42.678;23.288;2023-03-01T07:58:55;6.70;99.90
21092;DHT22;10704;42.678;23.288;2023-03-01T08:01:21;6.80;99.90
21092;DHT22;10704;42.678;23.288;2023-03-01T08:03:48;7.00;99.90
21092;DHT22;10704;42.678;23.288;2023-03-01T08:06:15;7.00;99.90
21092;DHT22;10704;42.678;23.288;2023-03-01T08:08:42;7.00;99.90
21092;DHT22;10704;42.678;23.288;2023-03-01T08:11:11;6.90;99.90
21092;DHT22;10704;42.678;23.288;2023-03-01T08:13:37;6.90;99.90
21092;DHT22;10704;42.678;23.288;2023-03-01T08:16:13;6.90;99.90
21092;DHT22;10704;42.678;23.288;2023-03-01T08:18:42;7.10;99.90
21092;DHT22;10704;42.678;23.288;2023-03-01T08:21:12;7.20;99.90
21092;DHT22;10704;42.678;23.288;2023-03-01T08:23:39;7.30;99.90
21092;DHT22;10704;42.678;23.288;2023-03-01T08:26:09;7.30;99.90
21092;DHT22;10704;42.678;23.288;2023-03-01T08:28:35;7.50;99.90
21092;DHT22;10704;42.678;23.288;2023-03-01T08:31:01;7.50;99.90
21092;DHT22;10704;42.678;23.288;2023-03-01T08:33:28;7.60;99.90
21092;DHT22;10704;42.678;23.288;2023-03-01T08:36:03;7.50;99.90
21092;DHT22;10704;42.678;23.288;2023-03-01T08:38:29;7.50;99.90
21092;DHT22;10704;42.678;23.288;2023-03-01T08:40:55;7.60;99.90
21092;DHT22;10704;42.678;23.288;2023-03-01T08:43:24;7.70;99.90
21092;DHT22;10704;42.678;23.288;2023-03-01T08:45:50;7.80;99.90
21092;DHT22;10704;42.678;23.288;2023-03-01T08:48:16;7.80;99.90
21092;DHT22;10704;42.678;23.288;2023-03-01T08:50:41;8.00;99.90
21092;DHT22;10704;42.678;23.288;2023-03-01T08:53:07;8.00;99.90
21092;DHT22;10704;42.678;23.288;2023-03-01T08:55:33;8.10;99.90
21092;DHT22;10704;42.678;23.288;2023-03-01T08:57:59;8.20;99.90
21092;DHT22;10704;42.678;23.288;2023-03-01T09:00:25;8.20;99.90
21092;DHT22;10704;42.678;23.288;2023-03-01T09:02:51;8.20;99.90
21092;DHT22;10704;42.678;23.288;2023-03-01T09:05:17;8.30;99.90
21092;DHT22;10704;42.678;23.288;2023-03-01T09:07:43;8.40;99.90
21092;DHT22;10704;42.678;23.288;2023-03-01T09:10:09;8.60;99.90
21092;DHT22;10704;42.678;23.288;2023-03-01T09:12:35;8.70;99.90
21092;DHT22;10704;42.678;23.288;2023-03-01T09:15:01;8.90;99.90
21092;DHT22;10704;42.678;23.288;2023-03-01T09:17:27;8.80;99.90
21092;DHT22;10704;42.678;23.288;2023-03-01T09:19:53;8.90;99.90
21092;DHT22;10704;42.678;23.288;2023-03-01T09:22:19;8.90;99.90
21092;DHT22;10704;42.678;23.288;2023-03-01T09:24:45;9.00;99.90
21092;DHT22;10704;42.678;23.288;2023-03-01T09:27:11;8.70;99.90
21092;DHT22;10704;42.678;23.288;2023-03-01T09:29:38;9.00;99.90
21092;DHT22;10704;42.678;23.288;2023-03-01T09:32:05;9.10;99.90
21092;DHT22;10704;42.678;23.288;2023-03-01T09:34:31;9.00;99.90
21092;DHT22;10704;42.678;23.288;2023-03-01T09:36:57;9.00;99.90
21092;DHT22;10704;42.678;23.288;2023-03-01T09:39:23;8.70;99.90
21092;DHT22;10704;42.678;23.288;2023-03-01T09:41:57;8.40;99.90
21092;DHT22;10704;42.678;23.288;2023-03-01T09:44:39;8.40;99.90
21092;DHT22;10704;42.678;23.288;2023-03-01T09:47:14;8.50;99.90
21092;DHT22;10704;42.678;23.288;2023-03-01T09:49:43;8.50;99.90
21092;DHT22;10704;42.678;23.288;2023-03-01T09:55:16;9.00;99.90
21092;DHT22;10704;42.678;23.288;2023-03-01T09:57:50;9.20;99.90
21092;DHT22;10704;42.678;23.288;2023-03-01T10:00:27;9.30;99.90
21092;DHT22;10704;42.678;23.288;2023-03-01T10:02:57;9.10;99.90
21092;DHT22;10704;42.678;23.288;2023-03-01T10:10:48;9.40;99.90
21092;DHT22;10704;42.678;23.288;2023-03-01T10:13:24;9.30;99.90
21092;DHT22;10704;42.678;23.288;2023-03-01T10:15:59;9.30;99.90
21092;DHT22;10704;42.678;23.288;2023-03-01T10:18:30;9.20;99.90
21092;DHT22;10704;42.678;23.288;2023-03-01T10:21:02;9.20;99.90
21092;DHT22;10704;42.678;23.288;2023-03-01T10:23:31;9.20;99.90
21092;DHT22;10704;42.678;23.288;2023-03-01T10:29:05;9.30;99.90
21092;DHT22;10704;42.678;23.288;2023-03-01T10:31:38;9.50;99.90
21092;DHT22;10704;42.678;23.288;2023-03-01T10:34:13;9.90;99.90
21092;DHT22;10704;42.678;23.288;2023-03-01T10:36:40;10.20;99.90
21092;DHT22;10704;42.678;23.288;2023-03-01T10:39:16;10.30;99.90
21092;DHT22;10704;42.678;23.288;2023-03-01T10:49:57;10.00;99.90
21092;DHT22;10704;42.678;23.288;2023-03-01T10:52:33;9.70;99.90
21092;DHT22;10704;42.678;23.288;2023-03-01T10:55:23;9.70;99.90
21092;DHT22;10704;42.678;23.288;2023-03-01T10:57:50;9.20;99.90
21092;DHT22;10704;42.678;23.288;2023-03-01T11:00:31;9.20;99.90
21092;DHT22;10704;42.678;23.288;2023-03-01T11:03:15;9.10;99.90
21092;DHT22;10704;42.678;23.288;2023-03-01T11:05:57;9.00;99.90
21092;DHT22;10704;42.678;23.288;2023-03-01T11:13:32;8.70;99.90
21092;DHT22;10704;42.678;23.288;2023-03-01T11:16:02;8.70;99.90
21092;DHT22;10704;42.678;23.288;2023-03-01T11:18:29;8.80;99.90
21092;DHT22;10704;42.678;23.288;2023-03-01T11:20:58;9.00;99.90
21092;DHT22;10704;42.678;23.288;2023-03-01T11:23:25;9.00;99.90
21092;DHT22;10704;42.678;23.288;2023-03-01T11:26:01;8.90;99.90
21092;DHT22;10704;42.678;23.288;2023-03-01T11:28:29;8.80;99.90
21092;DHT22;10704;42.678;23.288;2023-03-01T11:31:07;8.90;99.90
21092;DHT22;10704;42.678;23.288;2023-03-01T11:34:12;9.00;99.90
21092;DHT22;10704;42.678;23.288;2023-03-01T11:36:54;8.90;99.90
21092;DHT22;10704;42.678;23.288;2023-03-01T11:39:42;9.10;99.90
21092;DHT22;10704;42.678;23.288;2023-03-01T11:42:19;8.90;99.90
21092;DHT22;10704;42.678;23.288;2023-03-01T11:44:54;8.90;99.90
21092;DHT22;10704;42.678;23.288;2023-03-01T11:47:30;8.80;99.90
21092;DHT22;10704;42.678;23.288;2023-03-01T11:50:07;8.90;99.90
21092;DHT22;10704;42.678;23.288;2023-03-01T11:52:59;8.90;99.90
21092;DHT22;10704;42.678;23.288;2023-03-01T11:56:13;8.90;99.90
21092;DHT22;10704;42.678;23.288;2023-03-01T12:21:39;9.00;99.90
21092;DHT22;10704;42.678;23.288;2023-03-01T12:26:46;9.40;99.90
21092;DHT22;10704;42.678;23.288;2023-03-01T12:32:05;9.20;99.90
21092;DHT22;10704;42.678;23.288;2023-03-01T12:37:25;9.70;99.90
21092;DHT22;10704;42.678;23.288;2023-03-01T12:46:46;9.70;99.90
21092;DHT22;10704;42.678;23.288;2023-03-01T12:51:29;10.10;99.90
21092;DHT22;10704;42.678;23.288;2023-03-01T12:53:57;10.00;99.90
21092;DHT22;10704;42.678;23.288;2023-03-01T12:56:30;10.10;99.90
21092;DHT22;10704;42.678;23.288;2023-03-01T13:01:49;10.30;99.90
21092;DHT22;10704;42.678;23.288;2023-03-01T13:10:34;9.70;99.90
21092;DHT22;10704;42.678;23.288;2023-03-01T13:13:23;9.90;99.90
21092;DHT22;10704;42.678;23.288;2023-03-01T13:15:50;10.10;99.90
21092;DHT22;10704;42.678;23.288;2023-03-01T13:20:50;10.20;99.90
21092;DHT22;10704;42.678;23.288;2023-03-01T13:31:55;10.10;99.90
21092;DHT22;10704;42.678;23.288;2023-03-01T13:33:57;10.20;99.90
21092;DHT22;10704;42.678;23.288;2023-03-01T13:42:49;9.50;99.90
21092;DHT22;10704;42.678;23.288;2023-03-01T13:45:36;9.30;99.90
21092;DHT22;10704;42.678;23.288;2023-03-01T13:50:46;9.20;99.90
21092;DHT22;10704;42.678;23.288;2023-03-01T13:53:23;9.20;99.90
21092;DHT22;10704;42.678;23.288;2023-03-01T13:56:17;9.00;99.90
21092;DHT22;10704;42.678;23.288;2023-03-01T14:01:43;8.80;99.90
21092;DHT22;10704;42.678;23.288;2023-03-01T14:04:38;9.00;99.90
21092;DHT22;10704;42.678;23.288;2023-03-01T14:07:23;9.20;99.90
21092;DHT22;10704;42.678;23.288;2023-03-01T14:09:55;9.30;99.90
21092;DHT22;10704;42.678;23.288;2023-03-01T14:12:39;9.30;99.90
21092;DHT22;10704;42.678;23.288;2023-03-01T14:15:22;9.50;99.90
21092;DHT22;10704;42.678;23.288;2023-03-01T14:20:44;9.50;99.90
21092;DHT22;10704;42.678;23.288;2023-03-01T14:23:23;9.20;99.90
21092;DHT22;10704;42.678;23.288;2023-03-01T14:25:50;9.10;99.90
21092;DHT22;10704;42.678;23.288;2023-03-01T14:28:17;9.00;99.90
21092;DHT22;10704;42.678;23.288;2023-03-01T14:34:32;9.20;99.90
21092;DHT22;10704;42.678;23.288;2023-03-01T14:37:10;9.00;99.90
21092;DHT22;10704;42.678;23.288;2023-03-01T14:39:36;9.00;99.90
21092;DHT22;10704;42.678;23.288;2023-03-01T14:42:04;9.00;99.90
21092;DHT22;10704;42.678;23.288;2023-03-01T14:44:30;8.90;99.90
21092;DHT22;10704;42.678;23.288;2023-03-01T14:46:59;8.80;99.90
21092;DHT22;10704;42.678;23.288;2023-03-01T14:49:30;8.80;99.90
21092;DHT22;10704;42.678;23.288;2023-03-01T14:52:02;8.70;99.90
21092;DHT22;10704;42.678;23.288;2023-03-01T14:54:42;8.60;99.90
21092;DHT22;10704;42.678;23.288;2023-03-01T14:57:21;8.60;99.90
21092;DHT22;10704;42.678;23.288;2023-03-01T14:59:49;8.40;99.90
21092;DHT22;10704;42.678;23.288;2023-03-01T15:02:18;8.40;99.90
21092;DHT22;10704;42.678;23.288;2023-03-01T15:04:47;8.20;99.90
21092;DHT22;10704;42.678;23.288;2023-03-01T15:07:14;8.10;99.90
21092;DHT22;10704;42.678;23.288;2023-03-01T15:09:40;8.10;99.90
21092;DHT22;10704;42.678;23.288;2023-03-01T15:19:41;7.70;99.90
21092;DHT22;10704;42.678;23.288;2023-03-01T15:22:15;7.60;99.90
21092;DHT22;10704;42.678;23.288;2023-03-01T15:28:31;7.50;99.90
21092;DHT22;10704;42.678;23.288;2023-03-01T15:31:11;7.50;99.90
21092;DHT22;10704;42.678;23.288;2023-03-01T15:33:38;7.50;99.90
21092;DHT22;10704;42.678;23.288;2023-03-01T15:36:36;7.50;99.90
21092;DHT22;10704;42.678;23.288;2023-03-01T15:39:05;7.60;99.90
21092;DHT22;10704;42.678;23.288;2023-03-01T15:44:46;7.40;99.90
21092;DHT22;10704;42.678;23.288;2023-03-01T15:48:17;7.20;99.90
21092;DHT22;10704;42.678;23.288;2023-03-01T15:50:36;7.20;99.90
21092;DHT22;10704;42.678;23.288;2023-03-01T15:56:52;7.20;99.90
21092;DHT22;10704;42.678;23.288;2023-03-01T15:59:19;7.10;99.90
21092;DHT22;10704;42.678;23.288;2023-03-01T16:01:45;7.10;99.90
21092;DHT22;10704;42.678;23.288;2023-03-01T16:04:12;6.90;99.90
21092;DHT22;10704;42.678;23.288;2023-03-01T16:06:46;6.90;99.90
21092;DHT22;10704;42.678;23.288;2023-03-01T16:09:47;7.00;99.90
21092;DHT22;10704;42.678;23.288;2023-03-01T16:12:15;6.90;99.90
21092;DHT22;10704;42.678;23.288;2023-03-01T16:14:41;7.00;99.90
21092;DHT22;10704;42.678;23.288;2023-03-01T16:17:07;6.90;99.90
21092;DHT22;10704;42.678;23.288;2023-03-01T16:23:16;6.70;99.90
21092;DHT22;10704;42.678;23.288;2023-03-01T16:25:42;6.70;99.90
21092;DHT22;10704;42.678;23.288;2023-03-01T16:28:08;6.70;99.90
21092;DHT22;10704;42.678;23.288;2023-03-01T16:30:37;6.70;99.90
21092;DHT22;10704;42.678;23.288;2023-03-01T16:33:03;6.70;99.90
21092;DHT22;10704;42.678;23.288;2023-03-01T16:35:32;6.60;99.90
21092;DHT22;10704;42.678;23.288;2023-03-01T16:37:59;6.40;99.90
21092;DHT22;10704;42.678;23.288;2023-03-01T16:40:28;6.50;99.90
21092;DHT22;10704;42.678;23.288;2023-03-01T16:42:56;6.50;99.90
21092;DHT22;10704;42.678;23.288;2023-03-01T16:45:25;6.50;99.90
21092;DHT22;10704;42.678;23.288;2023-03-01T16:47:52;6.40;99.90
21092;DHT22;10704;42.678;23.288;2023-03-01T16:50:18;6.40;99.90
21092;DHT22;10704;42.678;23.288;2023-03-01T16:52:44;6.50;99.90
21092;DHT22;10704;42.678;23.288;2023-03-01T16:55:10;6.40;99.90
21092;DHT22;10704;42.678;23.288;2023-03-01T16:57:37;6.30;99.90
21092;DHT22;10704;42.678;23.288;2023-03-01T17:00:08;6.30;99.90
21092;DHT22;10704;42.678;23.288;2023-03-01T17:02:39;6.30;99.90
21092;DHT22;10704;42.678;23.288;2023-03-01T17:05:06;6.20;99.90
21092;DHT22;10704;42.678;23.288;2023-03-01T17:07:33;6.20;99.90
21092;DHT22;10704;42.678;23.288;2023-03-01T17:10:04;6.20;99.90
21092;DHT22;10704;42.678;23.288;2023-03-01T17:12:30;6.10;99.90
21092;DHT22;10704;42.678;23.288;2023-03-01T17:14:57;6.10;99.90
21092;DHT22;10704;42.678;23.288;2023-03-01T17:17:23;6.20;99.90
21092;DHT22;10704;42.678;23.288;2023-03-01T17:19:49;6.20;99.90
21092;DHT22;10704;42.678;23.288;2023-03-01T17:22:16;6.00;99.90
21092;DHT22;10704;42.678;23.288;2023-03-01T17:24:43;6.00;99.90
21092;DHT22;10704;42.678;23.288;2023-03-01T17:27:10;5.90;99.90
21092;DHT22;10704;42.678;23.288;2023-03-01T17:29:37;6.00;99.90
21092;DHT22;10704;42.678;23.288;2023-03-01T17:32:04;6.10;99.90
21092;DHT22;10704;42.678;23.288;2023-03-01T17:53:31;6.10;99.90
21092;DHT22;10704;42.678;23.288;2023-03-01T17:56:04;6.10;99.90
21092;DHT22;10704;42.678;23.288;2023-03-01T17:58:31;6.10;99.90
21092;DHT22;10704;42.678;23.288;2023-03-01T18:01:09;6.10;99.90
21092;DHT22;10704;42.678;23.288;2023-03-01T18:03:35;6.00;99.90
21092;DHT22;10704;42.678;23.288;2023-03-01T18:06:02;5.90;99.90
21092;DHT22;10704;42.678;23.288;2023-03-01T18:08:28;5.90;99.90
21092;DHT22;10704;42.678;23.288;2023-03-01T18:10:57;5.90;99.90
21092;DHT22;10704;42.678;23.288;2023-03-01T18:13:24;5.90;99.90
21092;DHT22;10704;42.678;23.288;2023-03-01T18:15:50;5.80;99.90
21092;DHT22;10704;42.678;23.288;2023-03-01T18:18:17;5.80;99.90
21092;DHT22;10704;42.678;23.288;2023-03-01T18:20:43;5.70;99.90
21092;DHT22;10704;42.678;23.288;2023-03-01T18:23:09;5.70;99.90